Time;durP1;ratioP1;P1;durP2;ratioP2;P2;SDS_P1;SDS_P2;PMS_P1;PMS_P2;Temp;Humidity;BMP_temperature;BMP_pressure;BME280_temperature;BME280_humidity;BME280_pressure;Samples;Min_cycle;Max_cycle;Signal;HPM_P1;HPM_P2
2022/07/14 00:00:28;;;;;;;;;;;14.80;99.90;;;;;;5105379;27;19969;-54
2022/07/14 00:03:08;;;;;;;;;;;14.80;99.90;;;;;;5125724;27;19912;-55
2022/07/14 00:05:48;;;;;;;;;;;14.70;99.90;;;;;;5125245;27;19912;-54
2022/07/14 00:08:27;;;;;;;;;;;14.60;99.90;;;;;;5104680;27;19912;-55
2022/07/14 00:11:07;;;;;;;;;;;14.60;99.90;;;;;;5125888;27;19912;-54
2022/07/14 00:13:47;;;;;;;;;;;14.60;99.90;;;;;;5105566;27;19945;-54
2022/07/14 00:16:27;;;;;;;;;;;14.50;99.90;;;;;;5124919;27;19927;-54
2022/07/14 00:19:07;;;;;;;;;;;14.40;99.90;;;;;;5125270;27;20550;-54
2022/07/14 00:21:47;;;;;;;;;;;14.30;99.90;;;;;;5126159;27;19912;-54
2022/07/14 00:24:26;;;;;;;;;;;14.30;99.90;;;;;;5126055;27;19918;-54
2022/07/14 00:27:06;;;;;;;;;;;14.40;99.90;;;;;;5122970;27;19911;-54
2022/07/14 00:29:46;;;;;;;;;;;14.50;99.90;;;;;;5105389;27;19912;-54
2022/07/14 00:32:26;;;;;;;;;;;14.50;99.90;;;;;;5085103;28;20374;-54
2022/07/14 00:35:09;;;;;;;;;;;14.60;99.90;;;;;;5125595;27;19949;-54
2022/07/14 00:37:49;;;;;;;;;;;14.60;99.90;;;;;;5125319;27;19918;-54
2022/07/14 00:40:29;;;;;;;;;;;14.70;99.90;;;;;;5126011;27;20419;-55
2022/07/14 00:43:08;;;;;;;;;;;14.70;99.90;;;;;;5125824;27;19911;-54
2022/07/14 00:45:49;;;;;;;;;;;14.80;99.90;;;;;;5104800;27;19912;-55
2022/07/14 00:48:30;;;;;;;;;;;14.90;99.90;;;;;;5125767;27;20389;-54
2022/07/14 00:51:10;;;;;;;;;;;14.90;99.90;;;;;;5105475;27;19916;-54
2022/07/14 00:53:52;;;;;;;;;;;14.80;99.90;;;;;;5105246;27;19926;-54
2022/07/14 00:56:32;;;;;;;;;;;14.60;99.90;;;;;;5125253;27;20097;-54
2022/07/14 00:59:12;;;;;;;;;;;14.40;99.90;;;;;;5125687;27;19911;-54
2022/07/14 01:01:52;;;;;;;;;;;14.30;99.90;;;;;;5125913;27;19911;-54
2022/07/14 01:04:32;;;;;;;;;;;14.10;99.90;;;;;;5125952;27;19911;-55
2022/07/14 01:07:12;;;;;;;;;;;14.10;99.90;;;;;;5125249;27;20320;-54
2022/07/14 01:09:52;;;;;;;;;;;14.00;99.90;;;;;;5125785;27;19915;-55
2022/07/14 01:12:32;;;;;;;;;;;13.90;99.90;;;;;;5104822;27;20322;-54
2022/07/14 01:15:13;;;;;;;;;;;13.90;99.90;;;;;;5084865;28;20086;-54
2022/07/14 01:17:54;;;;;;;;;;;13.90;99.90;;;;;;5104242;27;19957;-55
2022/07/14 01:20:34;;;;;;;;;;;13.90;99.90;;;;;;5125823;27;19926;-54
2022/07/14 01:23:14;;;;;;;;;;;13.90;99.90;;;;;;5108646;27;20289;-55
2022/07/14 01:25:54;;;;;;;;;;;13.70;99.90;;;;;;5125009;27;20399;-55
2022/07/14 01:28:34;;;;;;;;;;;13.70;99.90;;;;;;5124069;27;20073;-54
2022/07/14 01:31:13;;;;;;;;;;;13.70;99.90;;;;;;5125829;27;19916;-55
2022/07/14 01:33:55;;;;;;;;;;;13.60;99.90;;;;;;5105823;27;19930;-54
2022/07/14 01:36:35;;;;;;;;;;;13.70;99.90;;;;;;5124996;27;19919;-54
2022/07/14 01:39:16;;;;;;;;;;;13.80;99.90;;;;;;5099189;27;19912;-55
2022/07/14 01:41:58;;;;;;;;;;;13.80;99.90;;;;;;5125317;27;19915;-55
2022/07/14 01:44:37;;;;;;;;;;;13.80;99.90;;;;;;5113700;27;19912;-54
2022/07/14 01:47:19;;;;;;;;;;;13.90;99.90;;;;;;5124265;27;19912;-54
2022/07/14 01:49:59;;;;;;;;;;;14.00;99.90;;;;;;5125805;27;19916;-54
2022/07/14 01:52:42;;;;;;;;;;;14.10;99.90;;;;;;5155172;27;19912;-54
2022/07/14 01:55:22;;;;;;;;;;;14.20;99.90;;;;;;5125900;27;19912;-55
2022/07/14 01:58:03;;;;;;;;;;;14.30;99.90;;;;;;5124540;27;20405;-55
2022/07/14 02:00:43;;;;;;;;;;;14.40;99.90;;;;;;5125482;27;19912;-54
2022/07/14 02:03:22;;;;;;;;;;;14.50;99.90;;;;;;5125570;27;19911;-54
2022/07/14 02:06:03;;;;;;;;;;;14.50;99.90;;;;;;5124912;27;19912;-55
2022/07/14 02:08:44;;;;;;;;;;;14.60;99.90;;;;;;5126168;27;20373;-55
2022/07/14 02:14:23;;;;;;;;;;;14.60;99.90;;;;;;5104843;27;20455;-54
2022/07/14 02:17:03;;;;;;;;;;;14.60;99.90;;;;;;5125122;27;20357;-54
2022/07/14 02:19:44;;;;;;;;;;;14.60;99.90;;;;;;5125770;27;19953;-54
2022/07/14 02:22:24;;;;;;;;;;;14.70;99.90;;;;;;5105592;27;19942;-54
2022/07/14 02:25:04;;;;;;;;;;;14.70;99.90;;;;;;5125824;27;20238;-54
2022/07/14 02:27:45;;;;;;;;;;;14.70;99.90;;;;;;5123300;27;19911;-54
2022/07/14 02:30:26;;;;;;;;;;;14.80;99.90;;;;;;5125448;27;19912;-55
2022/07/14 02:33:07;;;;;;;;;;;14.80;99.90;;;;;;5125716;27;19922;-55
2022/07/14 02:35:48;;;;;;;;;;;14.80;99.90;;;;;;5104645;27;20353;-55
2022/07/14 02:38:28;;;;;;;;;;;14.90;99.90;;;;;;5104907;27;19926;-55
2022/07/14 02:41:07;;;;;;;;;;;14.90;99.90;;;;;;5155016;27;19916;-54
2022/07/14 02:43:47;;;;;;;;;;;15.00;99.90;;;;;;5105115;27;19953;-55
2022/07/14 02:46:27;;;;;;;;;;;15.00;99.90;;;;;;5124745;27;19912;-55
2022/07/14 02:49:08;;;;;;;;;;;15.00;99.90;;;;;;5105306;27;19912;-55
2022/07/14 02:51:52;;;;;;;;;;;15.00;99.90;;;;;;5105106;27;19916;-55
2022/07/14 02:54:31;;;;;;;;;;;15.00;99.90;;;;;;5125466;27;19912;-55
2022/07/14 02:57:12;;;;;;;;;;;15.10;99.90;;;;;;5128673;22;19969;-54
2022/07/14 02:59:52;;;;;;;;;;;15.10;99.90;;;;;;5125527;27;20378;-54
2022/07/14 03:02:32;;;;;;;;;;;15.10;99.90;;;;;;5104982;27;19926;-54
2022/07/14 03:05:12;;;;;;;;;;;15.10;99.90;;;;;;5125341;27;19911;-54
2022/07/14 03:07:52;;;;;;;;;;;15.10;99.90;;;;;;5125139;27;19912;-54
2022/07/14 03:10:32;;;;;;;;;;;15.10;99.90;;;;;;5126566;27;19916;-54
2022/07/14 03:13:12;;;;;;;;;;;15.10;99.90;;;;;;5105105;27;19926;-54
2022/07/14 03:15:53;;;;;;;;;;;15.10;99.90;;;;;;5120465;27;19919;-54
2022/07/14 03:18:45;;;;;;;;;;;15.10;99.90;;;;;;5154896;27;19912;-54
2022/07/14 03:21:26;;;;;;;;;;;15.10;99.90;;;;;;5126095;27;19912;-54
2022/07/14 03:24:09;;;;;;;;;;;15.00;99.90;;;;;;5125958;27;19911;-54
2022/07/14 03:26:51;;;;;;;;;;;14.90;99.90;;;;;;5090156;27;20021;-54
2022/07/14 03:29:30;;;;;;;;;;;14.80;99.90;;;;;;5105281;27;20397;-54
2022/07/14 03:32:12;;;;;;;;;;;14.80;99.90;;;;;;5105355;27;19912;-54
2022/07/14 03:34:52;;;;;;;;;;;14.70;99.90;;;;;;5125802;27;20347;-54
2022/07/14 03:37:33;;;;;;;;;;;14.70;99.90;;;;;;5124716;27;19912;-54
2022/07/14 03:40:16;;;;;;;;;;;14.70;99.90;;;;;;5091736;27;19927;-54
2022/07/14 03:42:56;;;;;;;;;;;14.70;99.90;;;;;;5125809;27;19912;-53
2022/07/14 03:45:36;;;;;;;;;;;14.80;99.90;;;;;;5102386;27;19931;-54
2022/07/14 03:48:16;;;;;;;;;;;15.00;99.90;;;;;;5082574;28;19912;-54
2022/07/14 03:51:00;;;;;;;;;;;15.10;99.90;;;;;;5125494;27;19912;-54
2022/07/14 03:53:40;;;;;;;;;;;15.20;99.90;;;;;;5105000;27;19912;-54
2022/07/14 03:56:21;;;;;;;;;;;15.20;99.90;;;;;;5115587;27;20381;-54
2022/07/14 03:59:01;;;;;;;;;;;15.20;99.90;;;;;;5145821;27;20376;-54
2022/07/14 04:01:41;;;;;;;;;;;15.20;99.90;;;;;;5104913;27;19912;-54
2022/07/14 04:04:21;;;;;;;;;;;15.30;99.90;;;;;;5084667;28;19916;-54
2022/07/14 04:07:02;;;;;;;;;;;15.40;99.90;;;;;;5104664;27;20335;-54
2022/07/14 04:09:42;;;;;;;;;;;15.50;99.90;;;;;;5105216;27;19912;-54
2022/07/14 04:12:22;;;;;;;;;;;15.50;99.90;;;;;;5105522;27;19926;-54
2022/07/14 04:15:02;;;;;;;;;;;15.50;99.90;;;;;;5105622;27;20149;-54
2022/07/14 04:17:45;;;;;;;;;;;15.50;99.90;;;;;;5104374;27;19930;-53
2022/07/14 04:20:25;;;;;;;;;;;15.50;99.90;;;;;;5104850;27;19949;-53
2022/07/14 04:23:06;;;;;;;;;;;15.60;99.90;;;;;;5105187;27;19930;-54
2022/07/14 04:25:47;;;;;;;;;;;15.70;99.90;;;;;;5104592;27;19916;-54
2022/07/14 04:28:27;;;;;;;;;;;15.70;99.90;;;;;;5125389;27;19912;-53
2022/07/14 04:31:08;;;;;;;;;;;15.80;99.90;;;;;;5104654;27;19912;-54
2022/07/14 04:33:49;;;;;;;;;;;15.80;99.90;;;;;;5105267;27;19954;-54
2022/07/14 04:36:30;;;;;;;;;;;15.80;99.90;;;;;;5113276;27;19912;-53
2022/07/14 04:39:11;;;;;;;;;;;15.90;99.90;;;;;;5084082;28;20278;-54
2022/07/14 04:41:53;;;;;;;;;;;17.00;99.90;;;;;;5125346;27;19915;-54
2022/07/14 04:44:35;;;;;;;;;;;18.60;99.90;;;;;;5125618;27;20328;-54
2022/07/14 04:47:16;;;;;;;;;;;19.80;99.90;;;;;;5124549;27;19912;-53
2022/07/14 04:52:56;;;;;;;;;;;19.40;99.90;;;;;;5104342;27;20278;-54
2022/07/14 04:55:56;;;;;;;;;;;18.90;99.90;;;;;;5082761;27;19963;-54
2022/07/14 04:58:57;;;;;;;;;;;18.40;99.90;;;;;;5104860;27;19953;-54
2022/07/14 05:01:37;;;;;;;;;;;18.00;99.90;;;;;;5084627;28;19916;-53
2022/07/14 05:04:17;;;;;;;;;;;18.90;99.90;;;;;;5105164;27;19930;-54
2022/07/14 05:06:57;;;;;;;;;;;19.50;99.90;;;;;;5124340;27;19911;-54
2022/07/14 05:09:38;;;;;;;;;;;20.60;99.90;;;;;;5104825;27;20427;-53
2022/07/14 05:12:20;;;;;;;;;;;20.70;99.90;;;;;;5125635;27;19916;-53
2022/07/14 05:15:02;;;;;;;;;;;20.00;99.90;;;;;;5104735;27;19916;-54
2022/07/14 05:17:43;;;;;;;;;;;19.70;99.90;;;;;;5124503;27;19916;-54
2022/07/14 05:20:26;;;;;;;;;;;20.20;99.90;;;;;;5104815;27;19945;-54
2022/07/14 05:23:06;;;;;;;;;;;21.30;99.90;;;;;;5105850;27;19916;-53
2022/07/14 05:25:45;;;;;;;;;;;22.40;99.90;;;;;;5121610;27;20270;-53
2022/07/14 05:28:25;;;;;;;;;;;23.50;98.50;;;;;;5104826;27;19912;-54
2022/07/14 05:31:10;;;;;;;;;;;24.00;90.40;;;;;;5105635;27;19916;-53
2022/07/14 05:33:58;;;;;;;;;;;23.10;91.90;;;;;;5125471;27;19912;-53
2022/07/14 05:36:37;;;;;;;;;;;22.10;99.90;;;;;;5112876;27;19912;-54
2022/07/14 05:39:17;;;;;;;;;;;21.60;99.90;;;;;;5104296;27;20430;-54
2022/07/14 05:41:57;;;;;;;;;;;21.50;99.90;;;;;;5125447;27;20323;-53
2022/07/14 05:44:37;;;;;;;;;;;21.20;99.90;;;;;;5125386;27;19918;-54
2022/07/14 05:47:18;;;;;;;;;;;20.80;99.90;;;;;;5108283;27;19919;-54
2022/07/14 05:49:59;;;;;;;;;;;20.80;99.90;;;;;;5125077;27;20274;-54
2022/07/14 05:52:42;;;;;;;;;;;21.10;99.90;;;;;;5146432;27;19915;-54
2022/07/14 05:55:23;;;;;;;;;;;21.30;99.90;;;;;;5104581;27;19953;-53
2022/07/14 05:58:04;;;;;;;;;;;21.80;99.90;;;;;;5103879;27;20316;-53
2022/07/14 06:00:45;;;;;;;;;;;22.10;99.90;;;;;;5125563;27;19916;-54
2022/07/14 06:03:25;;;;;;;;;;;22.30;99.90;;;;;;5125685;27;19911;-54
2022/07/14 06:06:06;;;;;;;;;;;22.50;99.90;;;;;;5118359;27;20300;-54
2022/07/14 06:08:47;;;;;;;;;;;22.70;99.90;;;;;;5084617;28;19912;-54
2022/07/14 06:11:26;;;;;;;;;;;22.90;99.90;;;;;;5125860;27;19912;-53
2022/07/14 06:14:07;;;;;;;;;;;22.80;99.90;;;;;;5105511;27;19927;-53
2022/07/14 06:16:48;;;;;;;;;;;22.80;99.90;;;;;;5112950;27;19912;-53
2022/07/14 06:19:27;;;;;;;;;;;22.80;99.90;;;;;;5104737;27;19916;-54
2022/07/14 06:22:08;;;;;;;;;;;22.90;99.90;;;;;;5112617;27;20369;-53
2022/07/14 06:24:49;;;;;;;;;;;23.20;99.90;;;;;;5105069;27;19926;-54
2022/07/14 06:27:35;;;;;;;;;;;23.80;96.30;;;;;;5106144;27;20384;-54
2022/07/14 06:30:17;;;;;;;;;;;24.60;90.90;;;;;;5125222;27;19911;-54
2022/07/14 06:32:56;;;;;;;;;;;25.60;79.40;;;;;;5105129;27;20462;-54
2022/07/14 06:35:39;;;;;;;;;;;26.00;69.60;;;;;;5121821;27;20385;-53
2022/07/14 06:38:19;;;;;;;;;;;25.60;63.30;;;;;;5125443;27;20265;-54
2022/07/14 06:40:59;;;;;;;;;;;25.20;62.00;;;;;;5105334;27;19912;-53
2022/07/14 06:43:42;;;;;;;;;;;25.00;66.20;;;;;;5125488;27;19911;-53
2022/07/14 06:46:22;;;;;;;;;;;25.00;69.00;;;;;;5095789;27;19930;-53
2022/07/14 06:49:02;;;;;;;;;;;25.00;66.90;;;;;;5104943;27;19916;-54
2022/07/14 06:51:41;;;;;;;;;;;25.40;63.10;;;;;;5125552;27;19911;-54
2022/07/14 06:54:21;;;;;;;;;;;25.80;58.30;;;;;;5125980;27;19918;-54
2022/07/14 06:57:01;;;;;;;;;;;26.00;54.40;;;;;;5124653;27;19916;-54
2022/07/14 06:59:41;;;;;;;;;;;26.20;51.30;;;;;;5125314;27;19911;-53
2022/07/14 07:02:21;;;;;;;;;;;26.30;50.20;;;;;;5104971;27;19926;-54
2022/07/14 07:07:59;;;;;;;;;;;26.30;46.10;;;;;;5124453;27;19919;-54
2022/07/14 07:10:41;;;;;;;;;;;26.80;45.10;;;;;;5146041;27;19911;-54
2022/07/14 07:13:21;;;;;;;;;;;27.20;42.90;;;;;;5105601;27;19934;-54
2022/07/14 07:16:05;;;;;;;;;;;27.80;42.70;;;;;;5098790;27;19916;-54
2022/07/14 07:18:45;;;;;;;;;;;28.40;41.80;;;;;;5125443;27;19922;-54
2022/07/14 07:21:25;;;;;;;;;;;28.70;41.70;;;;;;5125200;27;19931;-54
2022/07/14 07:24:05;;;;;;;;;;;29.20;39.60;;;;;;5105387;27;19912;-54
2022/07/14 07:26:46;;;;;;;;;;;29.50;39.00;;;;;;5124691;27;19912;-53
2022/07/14 07:29:26;;;;;;;;;;;29.40;40.30;;;;;;5105516;27;19949;-53
2022/07/14 07:32:07;;;;;;;;;;;29.20;40.00;;;;;;5125733;27;20466;-54
2022/07/14 07:34:47;;;;;;;;;;;29.20;40.70;;;;;;5126111;27;19911;-54
2022/07/14 07:37:28;;;;;;;;;;;28.90;38.90;;;;;;5085091;27;19916;-54
2022/07/14 07:40:09;;;;;;;;;;;28.90;38.60;;;;;;5126075;27;20323;-53
2022/07/14 07:42:50;;;;;;;;;;;29.10;38.80;;;;;;5126227;27;20055;-54
2022/07/14 07:45:30;;;;;;;;;;;29.40;37.80;;;;;;5124779;27;19912;-54
2022/07/14 07:48:10;;;;;;;;;;;29.60;37.60;;;;;;5125281;27;19918;-54
2022/07/14 07:50:51;;;;;;;;;;;29.80;37.10;;;;;;5125944;27;19912;-54
2022/07/14 07:53:31;;;;;;;;;;;30.10;36.80;;;;;;5125520;27;19915;-54
2022/07/14 07:56:11;;;;;;;;;;;30.10;36.40;;;;;;5124942;27;19918;-53
2022/07/14 07:58:51;;;;;;;;;;;30.30;39.40;;;;;;5104943;27;20382;-54
2022/07/14 08:01:31;;;;;;;;;;;29.80;37.60;;;;;;5105178;27;19912;-54
2022/07/14 08:04:10;;;;;;;;;;;29.60;37.90;;;;;;5125656;27;19912;-53
2022/07/14 08:06:50;;;;;;;;;;;29.50;37.40;;;;;;5124432;27;19925;-54
2022/07/14 08:09:30;;;;;;;;;;;29.40;36.60;;;;;;5125249;27;19912;-54
2022/07/14 08:12:10;;;;;;;;;;;29.50;36.20;;;;;;5125495;27;19912;-53
2022/07/14 08:14:51;;;;;;;;;;;29.40;36.70;;;;;;5125694;27;20307;-53
2022/07/14 08:17:31;;;;;;;;;;;29.30;35.80;;;;;;5125055;27;19916;-53
2022/07/14 08:20:12;;;;;;;;;;;29.20;38.80;;;;;;5125487;27;19912;-53
2022/07/14 08:22:52;;;;;;;;;;;29.00;41.50;;;;;;5125544;27;19915;-54
2022/07/14 08:25:34;;;;;;;;;;;29.00;39.50;;;;;;5125012;27;20316;-54
2022/07/14 08:28:14;;;;;;;;;;;29.30;37.20;;;;;;5125329;27;20381;-54
2022/07/14 08:30:55;;;;;;;;;;;29.80;40.10;;;;;;5126069;27;19916;-54
2022/07/14 08:33:35;;;;;;;;;;;30.00;36.90;;;;;;5105235;27;19916;-54
2022/07/14 08:36:15;;;;;;;;;;;30.40;37.40;;;;;;5115858;27;20312;-54
2022/07/14 08:38:55;;;;;;;;;;;30.80;35.00;;;;;;5125363;27;19911;-54
2022/07/14 08:41:35;;;;;;;;;;;30.90;35.50;;;;;;5105499;27;19920;-53
2022/07/14 08:44:16;;;;;;;;;;;30.70;35.30;;;;;;5125748;27;20199;-54
2022/07/14 08:46:57;;;;;;;;;;;30.70;36.20;;;;;;5124751;27;19912;-54
2022/07/14 08:49:37;;;;;;;;;;;30.70;36.80;;;;;;5105288;27;19953;-54
2022/07/14 08:52:18;;;;;;;;;;;30.70;36.30;;;;;;5125346;27;19918;-54
2022/07/14 08:54:59;;;;;;;;;;;30.60;35.70;;;;;;5105178;27;19926;-54
2022/07/14 08:57:39;;;;;;;;;;;30.60;36.80;;;;;;5106043;27;19916;-54
2022/07/14 09:00:20;;;;;;;;;;;30.60;37.30;;;;;;5125676;27;20273;-54
2022/07/14 09:02:59;;;;;;;;;;;30.40;36.20;;;;;;5125822;27;20555;-53
2022/07/14 09:05:41;;;;;;;;;;;30.30;36.90;;;;;;5146614;27;19949;-53
2022/07/14 09:08:21;;;;;;;;;;;30.10;36.30;;;;;;5104673;27;20348;-53
2022/07/14 09:11:01;;;;;;;;;;;30.00;36.20;;;;;;5105177;27;19946;-54
2022/07/14 09:13:41;;;;;;;;;;;30.00;36.20;;;;;;5126041;27;19912;-53
2022/07/14 09:16:21;;;;;;;;;;;29.90;36.60;;;;;;5123908;27;19912;-53
2022/07/14 09:19:06;;;;;;;;;;;29.80;37.50;;;;;;5125240;27;19922;-53
2022/07/14 09:21:53;;;;;;;;;;;29.70;36.60;;;;;;5125932;27;20069;-53
2022/07/14 09:24:32;;;;;;;;;;;29.50;38.70;;;;;;5084556;28;19916;-53
2022/07/14 09:27:20;;;;;;;;;;;29.50;38.60;;;;;;5109004;27;20237;-53
2022/07/14 09:30:00;;;;;;;;;;;29.20;37.90;;;;;;5125620;27;19912;-54
2022/07/14 09:32:44;;;;;;;;;;;29.00;39.10;;;;;;5105216;27;19913;-54
2022/07/14 09:35:25;;;;;;;;;;;29.00;38.50;;;;;;5125114;27;19929;-53
2022/07/14 09:38:15;;;;;;;;;;;29.10;39.70;;;;;;5124583;27;19916;-54
2022/07/14 09:41:08;;;;;;;;;;;29.00;36.90;;;;;;5125777;27;19911;-53
2022/07/14 09:44:02;;;;;;;;;;;28.90;36.90;;;;;;5125738;27;20235;-53
2022/07/14 09:46:49;;;;;;;;;;;29.00;37.10;;;;;;5113612;27;19912;-53
2022/07/14 09:49:31;;;;;;;;;;;29.30;37.60;;;;;;5125471;27;19911;-53
2022/07/14 09:52:12;;;;;;;;;;;29.90;36.70;;;;;;5104956;27;20401;-54
2022/07/14 09:54:51;;;;;;;;;;;30.50;35.80;;;;;;5105420;27;19916;-54
2022/07/14 09:57:31;;;;;;;;;;;31.20;33.50;;;;;;5104084;27;19912;-53
2022/07/14 10:00:12;;;;;;;;;;;31.60;34.10;;;;;;5125739;27;19912;-54
2022/07/14 10:02:53;;;;;;;;;;;32.30;32.20;;;;;;5125557;27;20392;-54
2022/07/14 10:05:34;;;;;;;;;;;32.50;32.30;;;;;;5125616;27;19911;-53
2022/07/14 10:08:14;;;;;;;;;;;32.50;32.70;;;;;;5125159;27;19912;-54
2022/07/14 10:10:56;;;;;;;;;;;32.60;33.80;;;;;;5125326;27;19916;-54
2022/07/14 10:13:37;;;;;;;;;;;32.80;32.90;;;;;;5125380;27;20346;-53
2022/07/14 10:16:17;;;;;;;;;;;33.10;33.20;;;;;;5124620;27;20285;-54
2022/07/14 10:18:58;;;;;;;;;;;33.30;31.20;;;;;;5125663;27;19912;-54
2022/07/14 10:21:38;;;;;;;;;;;33.50;31.60;;;;;;5104702;27;20327;-54
2022/07/14 10:24:20;;;;;;;;;;;34.10;30.00;;;;;;5105018;27;19912;-53
2022/07/14 10:27:01;;;;;;;;;;;34.70;29.70;;;;;;5111048;27;19912;-53
2022/07/14 10:29:41;;;;;;;;;;;34.70;30.00;;;;;;5105247;27;19912;-54
2022/07/14 10:32:30;;;;;;;;;;;34.70;28.40;;;;;;5125481;27;19912;-54
2022/07/14 10:35:26;;;;;;;;;;;34.60;28.70;;;;;;5125861;27;19920;-54
2022/07/14 10:38:17;;;;;;;;;;;34.70;28.90;;;;;;5104251;27;20508;-53
2022/07/14 10:41:03;;;;;;;;;;;34.90;28.90;;;;;;5105548;27;19912;-54
2022/07/14 10:43:49;;;;;;;;;;;34.30;28.70;;;;;;5126019;27;20137;-54
2022/07/14 10:46:39;;;;;;;;;;;34.40;28.50;;;;;;5125110;27;19916;-53
2022/07/14 10:49:19;;;;;;;;;;;34.50;30.00;;;;;;5104830;27;19926;-54
2022/07/14 10:51:58;;;;;;;;;;;34.80;29.20;;;;;;5105547;27;19930;-53
2022/07/14 10:54:38;;;;;;;;;;;34.40;27.80;;;;;;5125772;27;20162;-53
2022/07/14 10:57:18;;;;;;;;;;;33.90;29.60;;;;;;5124963;27;19915;-54
2022/07/14 10:59:58;;;;;;;;;;;34.00;29.40;;;;;;5126028;27;20324;-53
2022/07/14 11:02:38;;;;;;;;;;;34.30;29.90;;;;;;5105172;27;19926;-53
2022/07/14 11:05:19;;;;;;;;;;;34.30;29.80;;;;;;5125715;27;19915;-54
2022/07/14 11:08:09;;;;;;;;;;;34.30;28.60;;;;;;5104504;27;20560;-53
2022/07/14 11:10:57;;;;;;;;;;;34.20;29.40;;;;;;5105222;27;19969;-54
2022/07/14 11:13:51;;;;;;;;;;;34.10;29.70;;;;;;5125566;27;19912;-54
2022/07/14 11:16:50;;;;;;;;;;;34.00;29.10;;;;;;5094350;27;19927;-53
2022/07/14 11:19:32;;;;;;;;;;;33.30;29.20;;;;;;5104741;27;19912;-52
2022/07/14 11:22:20;;;;;;;;;;;33.20;29.90;;;;;;5125726;27;19912;-53
2022/07/14 11:25:01;;;;;;;;;;;32.90;29.60;;;;;;5126213;27;19920;-53
2022/07/14 11:27:43;;;;;;;;;;;32.60;30.60;;;;;;5103837;27;19926;-53
2022/07/14 11:30:28;;;;;;;;;;;32.70;32.30;;;;;;5125529;27;19911;-53
2022/07/14 11:33:09;;;;;;;;;;;32.90;30.00;;;;;;5105277;27;20431;-54
2022/07/14 11:38:48;;;;;;;;;;;33.80;29.30;;;;;;5154671;27;19911;-53
2022/07/14 11:41:42;;;;;;;;;;;33.80;29.70;;;;;;5105370;27;19926;-53
2022/07/14 11:44:39;;;;;;;;;;;33.40;29.40;;;;;;5125499;27;20335;-54
2022/07/14 11:47:20;;;;;;;;;;;33.20;29.80;;;;;;5107970;27;19912;-54
2022/07/14 11:50:01;;;;;;;;;;;33.00;29.50;;;;;;5105375;27;20324;-54
2022/07/14 11:52:41;;;;;;;;;;;33.10;29.60;;;;;;5105652;27;19930;-53
2022/07/14 11:55:22;;;;;;;;;;;33.70;29.40;;;;;;5105296;27;19945;-53
2022/07/14 11:58:03;;;;;;;;;;;34.40;29.20;;;;;;5124834;27;19916;-53
2022/07/14 12:00:54;;;;;;;;;;;35.20;28.20;;;;;;5105177;27;19926;-53
2022/07/14 12:03:35;;;;;;;;;;;35.80;27.40;;;;;;5125354;27;20403;-53
2022/07/14 12:06:16;;;;;;;;;;;36.00;26.90;;;;;;5124919;27;19912;-54
2022/07/14 12:08:56;;;;;;;;;;;35.70;27.10;;;;;;5125176;27;19911;-53
2022/07/14 12:11:36;;;;;;;;;;;35.50;26.90;;;;;;5105360;27;19927;-54
2022/07/14 12:14:16;;;;;;;;;;;35.70;27.70;;;;;;5125306;27;19912;-54
2022/07/14 12:16:57;;;;;;;;;;;35.60;26.90;;;;;;5111878;27;19916;-54
2022/07/14 12:19:37;;;;;;;;;;;35.50;27.90;;;;;;5084603;28;20329;-53
2022/07/14 12:22:17;;;;;;;;;;;35.70;28.70;;;;;;5125637;27;19927;-54
2022/07/14 12:24:58;;;;;;;;;;;36.10;27.70;;;;;;5125345;27;19915;-54
2022/07/14 12:27:38;;;;;;;;;;;36.80;25.90;;;;;;5085057;27;20324;-53
2022/07/14 12:30:20;;;;;;;;;;;37.00;26.20;;;;;;5105064;27;19927;-54
2022/07/14 12:32:59;;;;;;;;;;;37.20;25.50;;;;;;5126061;27;19912;-54
2022/07/14 12:35:40;;;;;;;;;;;37.10;25.50;;;;;;5100823;27;19913;-53
2022/07/14 12:38:21;;;;;;;;;;;37.10;26.50;;;;;;5125422;27;19912;-54
2022/07/14 12:41:02;;;;;;;;;;;37.00;25.80;;;;;;5125763;27;19918;-54
2022/07/14 12:43:43;;;;;;;;;;;36.90;25.70;;;;;;5125720;27;20316;-53
2022/07/14 12:46:24;;;;;;;;;;;36.40;24.10;;;;;;5104358;27;19965;-53
2022/07/14 12:49:05;;;;;;;;;;;35.90;25.50;;;;;;5125738;27;19916;-53
2022/07/14 12:51:46;;;;;;;;;;;35.70;25.90;;;;;;5125772;27;19918;-54
2022/07/14 12:54:33;;;;;;;;;;;35.70;26.30;;;;;;5124323;27;19937;-54
2022/07/14 12:57:20;;;;;;;;;;;35.70;26.00;;;;;;5115024;27;20337;-54
2022/07/14 13:00:10;;;;;;;;;;;35.80;27.40;;;;;;5124281;27;20385;-53
2022/07/14 13:02:51;;;;;;;;;;;36.20;26.00;;;;;;5103708;27;19912;-54
2022/07/14 13:05:31;;;;;;;;;;;36.20;25.40;;;;;;5103081;27;19946;-53
2022/07/14 13:08:27;;;;;;;;;;;36.30;25.70;;;;;;5125417;27;19912;-53
2022/07/14 13:11:10;;;;;;;;;;;35.90;25.50;;;;;;5105079;27;19912;-53
2022/07/14 13:13:51;;;;;;;;;;;35.30;26.10;;;;;;5122593;27;20368;-53
2022/07/14 13:16:31;;;;;;;;;;;34.60;26.30;;;;;;5113301;27;19912;-53
2022/07/14 13:19:18;;;;;;;;;;;34.20;27.70;;;;;;5120885;27;19911;-53
2022/07/14 13:22:00;;;;;;;;;;;33.90;26.70;;;;;;5124449;27;19916;-53
2022/07/14 13:24:45;;;;;;;;;;;33.80;27.90;;;;;;5106433;27;19918;-53
2022/07/14 13:27:28;;;;;;;;;;;34.40;27.50;;;;;;5109347;27;19964;-53
2022/07/14 13:30:08;;;;;;;;;;;34.90;26.00;;;;;;5121677;27;19919;-53
2022/07/14 13:32:49;;;;;;;;;;;35.30;25.20;;;;;;5121296;27;19953;-53
2022/07/14 13:35:29;;;;;;;;;;;35.40;25.90;;;;;;5123710;27;20300;-54
2022/07/14 13:38:08;;;;;;;;;;;35.60;25.00;;;;;;5109117;27;20078;-53
2022/07/14 13:40:48;;;;;;;;;;;35.40;25.70;;;;;;5123834;27;19916;-54
2022/07/14 13:43:28;;;;;;;;;;;35.50;25.80;;;;;;5125815;27;19919;-53
2022/07/14 13:46:09;;;;;;;;;;;35.80;24.90;;;;;;5118179;27;19916;-53
2022/07/14 13:48:49;;;;;;;;;;;35.80;24.80;;;;;;5125511;27;19911;-54
2022/07/14 13:54:27;;;;;;;;;;;36.40;24.20;;;;;;5113714;27;20414;-54
2022/07/14 13:57:07;;;;;;;;;;;36.70;25.50;;;;;;5112452;27;19927;-53
2022/07/14 13:59:46;;;;;;;;;;;36.50;23.80;;;;;;5125921;27;19918;-53
2022/07/14 14:03:22;;;;;;;;;;;36.30;24.70;;;;;;5125557;27;19911;-53
2022/07/14 14:05:27;;;;;;;;;;;36.40;25.00;;;;;;5124999;27;19912;-53
2022/07/14 14:08:09;;;;;;;;;;;36.60;24.60;;;;;;5124730;27;19912;-53
2022/07/14 14:10:50;;;;;;;;;;;36.70;25.70;;;;;;5111356;27;19949;-53
2022/07/14 14:13:30;;;;;;;;;;;36.70;24.30;;;;;;5115673;27;20149;-54
2022/07/14 14:16:11;;;;;;;;;;;36.20;24.40;;;;;;5117829;27;19916;-53
2022/07/14 14:18:51;;;;;;;;;;;35.50;24.70;;;;;;5125448;27;19918;-53
2022/07/14 14:21:31;;;;;;;;;;;35.00;25.60;;;;;;5125244;27;19916;-53
2022/07/14 14:24:12;;;;;;;;;;;35.00;25.80;;;;;;5113619;27;19926;-54
2022/07/14 14:26:52;;;;;;;;;;;35.30;26.00;;;;;;5112085;27;19912;-54
2022/07/14 14:29:32;;;;;;;;;;;35.60;25.30;;;;;;5125068;27;19920;-54
2022/07/14 14:32:11;;;;;;;;;;;36.10;25.70;;;;;;5125716;27;19916;-54
2022/07/14 14:34:51;;;;;;;;;;;36.50;25.20;;;;;;5124820;27;20329;-54
2022/07/14 14:37:31;;;;;;;;;;;36.60;25.60;;;;;;5124754;27;19916;-53
2022/07/14 14:40:11;;;;;;;;;;;36.50;25.30;;;;;;5125127;27;19919;-54
2022/07/14 14:42:51;;;;;;;;;;;35.60;24.70;;;;;;5106374;27;19953;-53
2022/07/14 14:45:31;;;;;;;;;;;34.50;26.10;;;;;;5124669;27;19916;-53
2022/07/14 14:48:10;;;;;;;;;;;33.90;27.10;;;;;;5105643;27;20316;-53
2022/07/14 14:50:50;;;;;;;;;;;33.60;27.00;;;;;;5125097;27;20393;-54
2022/07/14 14:53:30;;;;;;;;;;;33.40;27.80;;;;;;5125392;27;19918;-53
2022/07/14 14:56:10;;;;;;;;;;;33.20;27.70;;;;;;5124542;27;19915;-54
2022/07/14 14:58:50;;;;;;;;;;;33.10;28.60;;;;;;5125561;27;19912;-53
2022/07/14 15:01:30;;;;;;;;;;;32.80;29.60;;;;;;5104319;27;20336;-53
2022/07/14 15:04:10;;;;;;;;;;;32.70;28.50;;;;;;5125686;27;19973;-53
2022/07/14 15:06:51;;;;;;;;;;;32.50;28.80;;;;;;5112077;27;19919;-54
2022/07/14 15:09:31;;;;;;;;;;;32.70;29.00;;;;;;5125297;27;19918;-53
2022/07/14 15:12:10;;;;;;;;;;;32.90;29.60;;;;;;5105010;27;20427;-53
2022/07/14 15:14:51;;;;;;;;;;;33.10;29.50;;;;;;5105020;27;20467;-54
2022/07/14 15:17:32;;;;;;;;;;;33.40;29.80;;;;;;5109285;27;19957;-53
2022/07/14 15:20:12;;;;;;;;;;;33.70;28.50;;;;;;5123609;27;19961;-53
2022/07/14 15:22:53;;;;;;;;;;;34.00;29.30;;;;;;5124943;27;19926;-54
2022/07/14 15:25:33;;;;;;;;;;;34.30;28.00;;;;;;5123020;27;19916;-54
2022/07/14 15:28:13;;;;;;;;;;;34.30;27.90;;;;;;5124549;27;19922;-53
2022/07/14 15:30:54;;;;;;;;;;;33.90;27.60;;;;;;5124950;27;20270;-54
2022/07/14 15:33:34;;;;;;;;;;;33.80;28.10;;;;;;5125112;27;20353;-53
2022/07/14 15:36:14;;;;;;;;;;;33.90;28.00;;;;;;5121217;27;19961;-54
2022/07/14 15:41:51;;;;;;;;;;;34.80;28.00;;;;;;5113733;27;19916;-53
2022/07/14 15:44:31;;;;;;;;;;;35.40;27.80;;;;;;5125330;27;19918;-53
2022/07/14 15:47:11;;;;;;;;;;;35.10;27.10;;;;;;5091696;28;19917;-54
2022/07/14 15:49:50;;;;;;;;;;;34.00;28.70;;;;;;5118984;27;19916;-54
2022/07/14 15:52:30;;;;;;;;;;;33.30;29.40;;;;;;5123849;27;19978;-54
2022/07/14 15:55:11;;;;;;;;;;;32.90;30.50;;;;;;5125515;27;20419;-54